Time;durP1;ratioP1;P1;durP2;ratioP2;P2;SDS_P1;SDS_P2;PMS_P1;PMS_P2;Temp;Humidity;BMP_temperature;BMP_pressure;BME280_temperature;BME280_humidity;BME280_pressure;Samples;Min_cycle;Max_cycle;Signal;HPM_P1;HPM_P2
2021/12/03 00:01:08;;;;;;;3.23;2.73;;;4.40;99.90;;;;;;5052107;28;20208;-63
2021/12/03 00:03:38;;;;;;;3.03;2.50;;;4.40;99.90;;;;;;5052786;28;20567;-64
2021/12/03 00:06:05;;;;;;;5.53;2.67;;;4.40;99.90;;;;;;5051984;28;20266;-63
2021/12/03 00:08:32;;;;;;;4.77;2.83;;;4.30;99.90;;;;;;5052205;28;20225;-63
2021/12/03 00:11:01;;;;;;;3.73;2.40;;;4.30;99.90;;;;;;5052487;28;20220;-63
2021/12/03 00:13:31;;;;;;;3.13;2.53;;;4.40;99.90;;;;;;5052773;28;20213;-63
2021/12/03 00:15:59;;;;;;;5.13;3.10;;;4.40;99.90;;;;;;5052137;28;20594;-63
2021/12/03 00:18:26;;;;;;;4.27;3.10;;;4.40;99.90;;;;;;5053146;28;20579;-63
2021/12/03 00:20:56;;;;;;;4.63;2.87;;;4.40;99.90;;;;;;5053140;28;20232;-63
2021/12/03 00:23:25;;;;;;;3.70;3.07;;;4.40;99.90;;;;;;5053225;28;20218;-63
2021/12/03 00:25:52;;;;;;;3.80;2.50;;;4.30;99.90;;;;;;5052962;28;20295;-63
2021/12/03 00:28:19;;;;;;;5.67;2.87;;;4.30;99.90;;;;;;5057251;28;20229;-63
2021/12/03 00:30:45;;;;;;;4.07;2.87;;;4.20;99.90;;;;;;5058278;28;20209;-63
2021/12/03 00:33:13;;;;;;;3.83;2.80;;;4.20;99.90;;;;;;5057675;28;20255;-63
2021/12/03 00:35:39;;;;;;;4.73;3.13;;;4.20;99.90;;;;;;5055809;28;20634;-63
2021/12/03 00:38:08;;;;;;;4.53;3.07;;;4.10;99.90;;;;;;5056581;28;20587;-63
2021/12/03 00:40:38;;;;;;;5.57;2.87;;;4.10;99.90;;;;;;5055722;28;20212;-64
2021/12/03 00:43:05;;;;;;;5.30;2.97;;;4.10;99.90;;;;;;5056124;28;20733;-64
2021/12/03 00:45:32;;;;;;;3.40;2.80;;;4.10;99.90;;;;;;5058565;28;20205;-65
2021/12/03 00:47:59;;;;;;;5.17;3.10;;;4.00;99.90;;;;;;5065461;28;20233;-64
2021/12/03 00:50:27;;;;;;;4.67;2.70;;;3.90;99.90;;;;;;5062783;28;20209;-64
2021/12/03 00:52:54;;;;;;;5.30;3.23;;;3.90;99.90;;;;;;5061438;28;20210;-64
2021/12/03 00:55:24;;;;;;;9.57;3.40;;;3.90;99.90;;;;;;5060553;28;20570;-64
2021/12/03 00:57:51;;;;;;;4.97;3.20;;;3.90;99.90;;;;;;5057020;28;20233;-64
2021/12/03 01:00:23;;;;;;;4.67;3.33;;;3.70;99.90;;;;;;5055677;28;20205;-64
2021/12/03 01:02:50;;;;;;;4.40;3.00;;;3.80;99.90;;;;;;5055234;28;20216;-64
2021/12/03 01:05:17;;;;;;;4.47;3.03;;;3.80;99.90;;;;;;5054965;28;20209;-64
2021/12/03 01:07:44;;;;;;;3.73;2.63;;;3.80;99.90;;;;;;5055505;28;20225;-64
2021/12/03 01:10:11;;;;;;;4.97;3.10;;;3.80;99.90;;;;;;5055711;28;20209;-64
2021/12/03 01:12:39;;;;;;;3.97;3.07;;;3.80;99.90;;;;;;5055242;28;20205;-64
2021/12/03 01:15:10;;;;;;;4.40;3.30;;;3.90;99.90;;;;;;5054724;28;20592;-64
2021/12/03 01:17:37;;;;;;;6.03;3.47;;;4.00;99.90;;;;;;5055086;28;20241;-64
2021/12/03 01:20:07;;;;;;;6.40;3.30;;;4.10;99.90;;;;;;5055334;28;20213;-64
2021/12/03 01:22:34;;;;;;;5.90;3.20;;;4.10;99.90;;;;;;5055535;28;20214;-64
2021/12/03 01:25:01;;;;;;;5.27;3.23;;;4.10;99.90;;;;;;5055039;28;20592;-64
2021/12/03 01:27:27;;;;;;;4.90;3.23;;;4.10;99.90;;;;;;5055059;28;20226;-64
2021/12/03 01:29:56;;;;;;;5.27;3.37;;;4.00;99.90;;;;;;5054844;28;20206;-64
2021/12/03 01:32:23;;;;;;;4.87;3.73;;;4.00;99.90;;;;;;5055001;28;20240;-64
2021/12/03 01:34:49;;;;;;;5.73;3.17;;;3.90;99.90;;;;;;5055114;28;20209;-64
2021/12/03 01:37:16;;;;;;;5.67;3.43;;;3.90;99.90;;;;;;5055172;28;20295;-64
2021/12/03 01:39:43;;;;;;;3.57;3.27;;;3.90;99.90;;;;;;5054440;28;20206;-64
2021/12/03 01:42:10;;;;;;;7.43;3.70;;;3.90;99.90;;;;;;5055056;28;20218;-64
2021/12/03 01:44:36;;;;;;;6.87;3.80;;;3.80;99.90;;;;;;5054745;28;20688;-64
2021/12/03 01:47:05;;;;;;;10.13;5.10;;;3.80;99.90;;;;;;5054384;28;20628;-64
2021/12/03 01:49:32;;;;;;;4.37;3.63;;;3.70;99.90;;;;;;5054439;28;20233;-64
2021/12/03 01:51:58;;;;;;;4.93;3.60;;;3.70;99.90;;;;;;5054488;28;20209;-64
2021/12/03 01:54:25;;;;;;;7.73;3.50;;;3.60;99.90;;;;;;5054489;28;20209;-64
2021/12/03 01:56:52;;;;;;;6.57;3.70;;;3.60;99.90;;;;;;5054083;28;20248;-64
2021/12/03 01:59:18;;;;;;;4.77;3.70;;;3.50;99.90;;;;;;5054283;28;20259;-64
2021/12/03 02:01:45;;;;;;;6.67;3.60;;;3.50;99.90;;;;;;5054779;28;20593;-64
2021/12/03 02:04:13;;;;;;;6.20;3.97;;;3.50;99.90;;;;;;5054739;28;20205;-65
2021/12/03 02:06:40;;;;;;;6.13;4.00;;;3.50;99.90;;;;;;5054378;28;20249;-64
2021/12/03 02:09:08;;;;;;;4.97;3.47;;;3.60;99.90;;;;;;5055065;28;20222;-64
2021/12/03 02:11:35;;;;;;;6.30;4.73;;;3.60;99.90;;;;;;5054744;28;20210;-64
2021/12/03 02:14:03;;;;;;;5.23;4.00;;;3.50;99.90;;;;;;5053775;28;20209;-63
2021/12/03 02:16:29;;;;;;;5.40;4.37;;;3.50;99.90;;;;;;5053391;28;20256;-64
2021/12/03 02:18:56;;;;;;;6.53;4.13;;;3.50;99.90;;;;;;5054345;28;20208;-64
2021/12/03 02:21:24;;;;;;;6.70;4.60;;;3.50;99.90;;;;;;5053818;28;20206;-63
2021/12/03 02:23:53;;;;;;;7.57;4.00;;;3.50;99.90;;;;;;5053680;28;20209;-63
2021/12/03 02:26:21;;;;;;;5.97;4.27;;;3.40;99.90;;;;;;5053399;28;20233;-63
2021/12/03 02:28:50;;;;;;;6.93;4.20;;;3.30;99.90;;;;;;5053219;28;20232;-67
2021/12/03 02:31:19;;;;;;;8.60;4.67;;;3.30;99.90;;;;;;5053589;28;20208;-64
2021/12/03 02:33:46;;;;;;;7.70;4.50;;;3.20;99.90;;;;;;5053613;28;20210;-64
2021/12/03 02:36:13;;;;;;;6.57;3.93;;;3.20;99.90;;;;;;5053042;28;20716;-64
2021/12/03 02:38:41;;;;;;;5.73;4.10;;;3.20;99.90;;;;;;5053466;28;20212;-64
2021/12/03 02:41:08;;;;;;;7.97;5.03;;;3.20;99.90;;;;;;5053252;28;20259;-65
2021/12/03 02:43:35;;;;;;;5.47;4.50;;;3.10;99.90;;;;;;5053668;28;20209;-65
2021/12/03 02:46:02;;;;;;;6.20;4.50;;;3.10;99.90;;;;;;5053515;28;20213;-64
2021/12/03 02:48:31;;;;;;;6.30;4.70;;;3.10;99.90;;;;;;5053402;28;20229;-65
2021/12/03 02:50:58;;;;;;;7.90;4.60;;;3.10;99.90;;;;;;5052332;28;20201;-64
2021/12/03 02:53:25;;;;;;;6.93;5.07;;;3.10;99.90;;;;;;5053147;28;20235;-65
2021/12/03 02:55:53;;;;;;;8.80;4.97;;;3.20;99.90;;;;;;5052866;28;20696;-65
2021/12/03 02:58:20;;;;;;;7.23;4.87;;;3.10;99.90;;;;;;5053651;28;20206;-65
2021/12/03 03:00:49;;;;;;;7.27;4.80;;;3.10;99.90;;;;;;5053227;28;20581;-65
2021/12/03 03:03:16;;;;;;;7.67;4.93;;;3.10;99.90;;;;;;5053476;28;20206;-65
2021/12/03 03:05:47;;;;;;;5.57;4.93;;;3.10;99.90;;;;;;5053008;28;20236;-64
2021/12/03 03:08:14;;;;;;;9.20;4.53;;;3.10;99.90;;;;;;5053203;28;20226;-65
2021/12/03 03:10:42;;;;;;;7.40;4.87;;;3.00;99.90;;;;;;5053452;28;20202;-65
2021/12/03 03:13:10;;;;;;;7.57;4.77;;;3.00;99.90;;;;;;5053191;28;20205;-65
2021/12/03 03:15:39;;;;;;;6.50;4.87;;;3.00;99.90;;;;;;5053058;28;20217;-65
2021/12/03 03:18:12;;;;;;;5.73;4.50;;;3.00;99.90;;;;;;5052761;28;20263;-65
2021/12/03 03:20:40;;;;;;;10.03;5.53;;;3.00;99.90;;;;;;5053386;28;20225;-65
2021/12/03 03:23:08;;;;;;;7.43;4.70;;;3.00;99.90;;;;;;5053305;28;20296;-64
2021/12/03 03:25:35;;;;;;;10.20;5.27;;;3.00;99.90;;;;;;5053094;28;20216;-64
2021/12/03 03:28:02;;;;;;;6.33;5.03;;;2.90;99.90;;;;;;5052633;28;20225;-65
2021/12/03 03:30:30;;;;;;;8.70;6.50;;;2.90;99.90;;;;;;5052756;28;20205;-65
2021/12/03 03:32:57;;;;;;;10.07;5.50;;;2.90;99.90;;;;;;5052722;28;20677;-65
2021/12/03 03:35:24;;;;;;;7.37;5.10;;;3.00;99.90;;;;;;5052386;28;20232;-65
2021/12/03 03:37:50;;;;;;;8.33;5.07;;;3.10;99.90;;;;;;5052650;28;20233;-65
2021/12/03 03:40:18;;;;;;;7.97;5.40;;;3.10;99.90;;;;;;5052593;28;20202;-65
2021/12/03 03:42:45;;;;;;;6.83;5.40;;;3.10;99.90;;;;;;5052390;28;20685;-65
2021/12/03 03:45:15;;;;;;;8.40;5.50;;;3.10;99.90;;;;;;5051998;28;20209;-64
2021/12/03 03:47:44;;;;;;;6.30;5.37;;;3.10;99.90;;;;;;5052679;28;20574;-64
2021/12/03 03:50:12;;;;;;;7.17;5.40;;;3.20;99.90;;;;;;5052520;28;20248;-64
2021/12/03 03:52:39;;;;;;;10.17;5.80;;;3.20;99.90;;;;;;5052299;28;20584;-64
2021/12/03 03:55:07;;;;;;;8.23;5.43;;;3.30;99.90;;;;;;5051990;28;20236;-64
2021/12/03 03:57:34;;;;;;;8.83;5.57;;;3.40;99.90;;;;;;5051890;28;20225;-65
2021/12/03 04:00:01;;;;;;;8.87;5.53;;;3.50;99.90;;;;;;5051939;28;20206;-65
2021/12/03 04:02:28;;;;;;;8.50;5.60;;;3.60;99.90;;;;;;5051699;28;20213;-65
2021/12/03 04:04:56;;;;;;;7.67;5.50;;;3.80;99.90;;;;;;5052412;28;20229;-64
2021/12/03 04:07:23;;;;;;;8.60;5.33;;;3.90;99.90;;;;;;5051915;28;20222;-64
2021/12/03 04:09:49;;;;;;;6.70;5.43;;;3.90;99.90;;;;;;5052005;28;20222;-64
2021/12/03 04:12:16;;;;;;;7.67;5.57;;;3.90;99.90;;;;;;5051959;28;20219;-65
2021/12/03 04:14:43;;;;;;;6.40;5.20;;;3.90;99.90;;;;;;5051801;28;20236;-65
2021/12/03 04:17:11;;;;;;;9.63;5.80;;;3.90;99.90;;;;;;5051344;28;20229;-64
2021/12/03 04:19:38;;;;;;;7.63;5.33;;;3.90;99.90;;;;;;5051953;28;20202;-65
2021/12/03 04:22:06;;;;;;;7.77;5.27;;;4.00;99.90;;;;;;5052145;28;20690;-65
2021/12/03 04:24:33;;;;;;;9.40;5.60;;;4.00;99.90;;;;;;5052250;28;20206;-64
2021/12/03 04:27:00;;;;;;;7.57;5.67;;;4.00;99.90;;;;;;5051477;28;20234;-65
2021/12/03 04:29:27;;;;;;;7.83;5.30;;;4.00;99.90;;;;;;5051767;28;20226;-65
2021/12/03 04:31:53;;;;;;;6.27;5.20;;;3.90;99.90;;;;;;5052365;28;20209;-65
2021/12/03 04:34:20;;;;;;;6.90;5.30;;;3.90;99.90;;;;;;5051848;28;20205;-64
2021/12/03 04:36:47;;;;;;;9.10;5.50;;;3.90;99.90;;;;;;5051576;28;20300;-64
2021/12/03 04:39:15;;;;;;;6.50;5.10;;;3.90;99.90;;;;;;5051893;28;20206;-64
2021/12/03 04:41:41;;;;;;;7.10;6.00;;;3.90;99.90;;;;;;5051742;28;20213;-64
2021/12/03 04:44:08;;;;;;;9.70;7.37;;;3.90;99.90;;;;;;5051515;28;20620;-64
2021/12/03 04:46:35;;;;;;;9.03;6.00;;;3.90;99.90;;;;;;5051593;28;20237;-64
2021/12/03 04:49:02;;;;;;;9.27;6.60;;;3.90;99.90;;;;;;5051568;28;20226;-64
2021/12/03 04:51:29;;;;;;;6.73;5.70;;;3.90;99.90;;;;;;5051770;28;20206;-64
2021/12/03 04:53:56;;;;;;;7.93;5.80;;;3.90;99.90;;;;;;5051645;28;20213;-65
2021/12/03 04:56:24;;;;;;;6.87;5.33;;;3.90;99.90;;;;;;5051301;28;20230;-65
2021/12/03 04:58:50;;;;;;;7.90;5.43;;;3.90;99.90;;;;;;5051394;28;20210;-64
2021/12/03 05:01:17;;;;;;;7.73;5.63;;;3.90;99.90;;;;;;5051732;28;20208;-65
2021/12/03 05:03:44;;;;;;;8.73;5.17;;;3.90;99.90;;;;;;5051960;28;20206;-65
2021/12/03 05:06:15;;;;;;;7.40;5.83;;;3.80;99.90;;;;;;5051181;28;20717;-64
2021/12/03 05:08:42;;;;;;;7.13;5.73;;;3.80;99.90;;;;;;5051450;28;20300;-64
2021/12/03 05:11:09;;;;;;;6.63;5.27;;;3.80;99.90;;;;;;5052472;28;20210;-65
2021/12/03 05:13:38;;;;;;;8.63;6.03;;;3.80;99.90;;;;;;5052568;28;20218;-65
2021/12/03 05:16:08;;;;;;;6.83;5.50;;;3.80;99.90;;;;;;5067405;22;20248;31
2021/12/03 05:18:35;;;;;;;7.83;5.47;;;3.80;99.90;;;;;;4993868;28;20277;-62
2021/12/03 05:21:03;;;;;;;6.93;5.40;;;3.90;99.90;;;;;;4976466;28;20217;-63
2021/12/03 05:23:32;;;;;;;8.63;6.03;;;3.90;99.90;;;;;;4976155;28;20211;-62
2021/12/03 05:26:00;;;;;;;8.57;5.10;;;3.90;99.90;;;;;;4975763;28;20217;-62
2021/12/03 05:28:28;;;;;;;9.70;5.80;;;3.90;99.90;;;;;;4976285;28;20232;-63
2021/12/03 05:30:57;;;;;;;7.63;6.00;;;3.90;99.90;;;;;;4976195;28;20247;-62
2021/12/03 05:33:23;;;;;;;7.03;5.60;;;3.90;99.90;;;;;;4976047;28;20219;-62
2021/12/03 05:35:50;;;;;;;7.73;6.07;;;3.90;99.90;;;;;;4976268;28;20208;-62
2021/12/03 05:38:18;;;;;;;9.37;6.13;;;3.90;99.90;;;;;;4976037;28;20240;-63
2021/12/03 05:40:44;;;;;;;9.07;5.90;;;3.90;99.90;;;;;;4976205;28;20691;-62
2021/12/03 05:43:11;;;;;;;7.47;6.07;;;3.90;99.90;;;;;;4975933;28;20255;-62
2021/12/03 05:45:38;;;;;;;5.87;5.27;;;3.90;99.90;;;;;;4975482;28;20212;-63
2021/12/03 05:48:07;;;;;;;7.77;5.93;;;3.90;99.90;;;;;;4975988;28;20231;-63
2021/12/03 05:50:34;;;;;;;10.50;6.10;;;3.90;99.90;;;;;;4975975;28;20224;-63
2021/12/03 05:53:01;;;;;;;6.20;5.40;;;3.90;99.90;;;;;;4975626;28;20636;-63
2021/12/03 05:55:28;;;;;;;7.13;5.73;;;3.90;99.90;;;;;;4975027;28;20208;-63
2021/12/03 05:57:55;;;;;;;8.50;5.97;;;3.90;99.90;;;;;;4975498;28;20299;-62
2021/12/03 06:00:25;;;;;;;7.53;5.67;;;3.80;99.90;;;;;;4975252;28;20262;-62
2021/12/03 06:02:52;;;;;;;7.63;5.67;;;3.90;99.90;;;;;;4975424;28;20219;-62
2021/12/03 06:05:21;;;;;;;7.07;5.80;;;3.90;99.90;;;;;;4974878;28;20299;-62
2021/12/03 06:07:48;;;;;;;8.30;6.30;;;3.80;99.90;;;;;;4975344;28;20233;-62
2021/12/03 06:10:15;;;;;;;7.67;6.50;;;3.80;99.90;;;;;;4974979;28;20735;-62
2021/12/03 06:12:41;;;;;;;8.93;6.53;;;3.80;99.90;;;;;;4974954;28;20239;-62
2021/12/03 06:15:09;;;;;;;9.47;5.83;;;3.80;99.90;;;;;;4975161;28;20204;-64
2021/12/03 06:17:35;;;;;;;8.83;6.67;;;3.80;99.90;;;;;;4974533;28;20247;-62
2021/12/03 06:20:02;;;;;;;8.43;5.83;;;3.80;99.90;;;;;;4975449;28;20209;-62
2021/12/03 06:22:30;;;;;;;8.23;5.70;;;3.80;99.90;;;;;;4975120;28;20223;-62
2021/12/03 06:24:57;;;;;;;8.83;6.57;;;3.90;99.90;;;;;;4974623;28;20735;-62
2021/12/03 06:27:25;;;;;;;10.63;6.20;;;3.80;99.90;;;;;;4974580;28;20239;-62
2021/12/03 06:29:52;;;;;;;10.73;6.20;;;3.70;99.90;;;;;;4974698;28;20236;-63
2021/12/03 06:32:19;;;;;;;11.10;6.03;;;3.60;99.90;;;;;;4974713;28;20240;-63
2021/12/03 06:34:45;;;;;;;10.73;6.53;;;3.60;99.90;;;;;;4974634;28;20755;-62
2021/12/03 06:37:12;;;;;;;9.63;6.87;;;3.50;99.90;;;;;;4974634;28;20307;-63
2021/12/03 06:39:40;;;;;;;9.90;6.87;;;3.50;99.90;;;;;;4974610;28;20224;-63
2021/12/03 06:42:07;;;;;;;11.93;7.87;;;3.50;99.90;;;;;;4974630;28;20212;-62
2021/12/03 06:44:34;;;;;;;10.10;6.90;;;3.60;99.90;;;;;;4974401;28;20220;-63
2021/12/03 06:47:02;;;;;;;13.73;9.97;;;3.60;99.90;;;;;;4974053;28;20608;-62
2021/12/03 06:49:33;;;;;;;17.87;9.57;;;3.70;99.90;;;;;;4974499;28;20228;-62
2021/12/03 06:52:02;;;;;;;11.50;7.20;;;3.70;99.90;;;;;;4974437;28;20314;-62
2021/12/03 06:54:31;;;;;;;10.97;7.60;;;3.70;99.90;;;;;;4974257;28;20235;-62
2021/12/03 06:57:01;;;;;;;16.93;7.17;;;3.80;99.90;;;;;;4973715;28;20319;-63
2021/12/03 06:59:28;;;;;;;10.83;7.87;;;3.80;99.90;;;;;;4974057;28;20216;-63
2021/12/03 07:01:55;;;;;;;10.67;7.17;;;3.80;99.90;;;;;;4974378;28;20219;-63
2021/12/03 07:04:22;;;;;;;10.20;6.47;;;3.70;99.90;;;;;;4974288;28;20215;-63
2021/12/03 07:06:50;;;;;;;7.63;5.77;;;3.70;99.90;;;;;;4974320;28;20228;-63
2021/12/03 07:09:17;;;;;;;9.30;6.27;;;3.60;99.90;;;;;;4974201;28;20204;-63
2021/12/03 07:11:43;;;;;;;7.83;5.53;;;3.50;99.90;;;;;;4974223;28;20299;-63
2021/12/03 07:14:12;;;;;;;7.00;5.13;;;3.50;99.90;;;;;;4974064;28;20832;-63
2021/12/03 07:16:39;;;;;;;8.73;4.97;;;3.40;99.90;;;;;;4973549;28;20255;-63
2021/12/03 07:19:06;;;;;;;6.23;5.03;;;3.30;99.90;;;;;;4974166;28;20585;-63
2021/12/03 07:21:33;;;;;;;9.20;5.50;;;3.30;99.90;;;;;;4974247;28;20204;-63
2021/12/03 07:24:00;;;;;;;7.37;5.03;;;3.40;99.90;;;;;;4973747;28;20208;-63
2021/12/03 07:26:27;;;;;;;10.33;6.83;;;3.50;99.90;;;;;;4973439;28;20627;-63
2021/12/03 07:28:55;;;;;;;8.37;5.83;;;3.60;99.90;;;;;;4973723;28;20668;-63
2021/12/03 07:31:23;;;;;;;7.57;5.13;;;3.70;99.90;;;;;;4973760;28;20236;-63
2021/12/03 07:33:50;;;;;;;7.07;5.40;;;3.80;99.90;;;;;;4973746;28;20212;-63
2021/12/03 07:36:17;;;;;;;6.77;4.63;;;3.90;99.90;;;;;;4972870;28;20259;-63
2021/12/03 07:38:43;;;;;;;8.50;4.50;;;3.90;99.90;;;;;;4974121;28;20565;-63
2021/12/03 07:41:10;;;;;;;5.57;3.90;;;3.90;99.90;;;;;;4973392;28;20211;-63
2021/12/03 07:43:37;;;;;;;8.80;5.17;;;3.90;99.90;;;;;;4973556;28;20216;-63
2021/12/03 07:46:04;;;;;;;5.03;3.50;;;3.90;99.90;;;;;;4973458;28;20211;-63
2021/12/03 07:48:32;;;;;;;5.73;2.80;;;3.80;99.90;;;;;;4973427;28;20231;-62
2021/12/03 07:50:59;;;;;;;3.17;2.60;;;3.80;99.90;;;;;;4973393;28;20228;-62
2021/12/03 07:53:26;;;;;;;3.73;1.77;;;3.70;99.90;;;;;;4973272;28;20204;-63
2021/12/03 07:55:54;;;;;;;4.43;2.50;;;3.60;99.90;;;;;;4973030;28;20598;-62
2021/12/03 07:58:21;;;;;;;3.13;2.30;;;3.50;99.90;;;;;;4973321;28;20239;-62
2021/12/03 08:00:49;;;;;;;3.00;2.33;;;3.50;99.90;;;;;;4973192;28;20215;-62
2021/12/03 08:03:16;;;;;;;3.70;2.63;;;3.50;99.90;;;;;;4973218;28;20215;-62
2021/12/03 08:05:45;;;;;;;4.93;2.80;;;3.60;99.90;;;;;;4972618;28;20729;-62
2021/12/03 08:08:11;;;;;;;6.63;2.93;;;3.60;99.90;;;;;;4972928;28;20232;-62
2021/12/03 08:10:39;;;;;;;4.60;2.50;;;3.60;99.90;;;;;;4973196;28;20228;-62
2021/12/03 08:13:06;;;;;;;4.50;3.07;;;3.60;99.90;;;;;;4973305;28;20235;-61
2021/12/03 08:15:36;;;;;;;5.87;3.40;;;3.70;99.90;;;;;;4973079;28;20216;-60
2021/12/03 08:18:04;;;;;;;7.03;3.60;;;3.90;99.90;;;;;;4972849;28;20239;-60
2021/12/03 08:20:31;;;;;;;5.13;3.23;;;4.20;99.90;;;;;;4972859;28;20200;-60
2021/12/03 08:23:00;;;;;;;4.77;3.10;;;4.60;99.90;;;;;;4972956;28;20594;-59
2021/12/03 08:25:27;;;;;;;7.90;3.47;;;4.90;99.90;;;;;;4973072;28;20219;-60
2021/12/03 08:27:54;;;;;;;4.27;3.53;;;5.00;99.90;;;;;;4972470;28;20322;-60
2021/12/03 08:30:20;;;;;;;4.13;2.97;;;5.20;99.90;;;;;;4972769;28;20228;-60
2021/12/03 08:32:48;;;;;;;7.70;3.60;;;5.40;99.90;;;;;;4972807;28;20713;-60
2021/12/03 08:35:15;;;;;;;6.00;3.37;;;5.50;99.90;;;;;;4972703;28;20216;-60
2021/12/03 08:37:45;;;;;;;7.27;3.20;;;5.60;99.90;;;;;;4972725;28;20228;-60
2021/12/03 08:40:13;;;;;;;4.60;3.13;;;5.60;99.90;;;;;;4973179;28;20287;-60
2021/12/03 08:42:40;;;;;;;8.20;3.37;;;5.50;99.90;;;;;;4972956;28;20215;-60
2021/12/03 08:45:07;;;;;;;8.37;3.77;;;5.50;99.90;;;;;;4972910;28;20561;-60
2021/12/03 08:47:35;;;;;;;4.33;3.40;;;5.50;99.90;;;;;;4972431;28;20263;-60
2021/12/03 08:50:05;;;;;;;6.13;3.47;;;5.50;99.90;;;;;;4975095;28;20216;-62
2021/12/03 08:52:46;;;;;;;6.33;3.23;;;5.50;99.90;;;;;;4976711;28;20244;-63
2021/12/03 08:55:13;;;;;;;5.40;3.50;;;5.50;99.90;;;;;;4976389;28;20794;-62
2021/12/03 08:57:40;;;;;;;3.73;3.10;;;5.50;99.90;;;;;;4976348;28;20235;-63
2021/12/03 09:00:11;;;;;;;5.27;3.40;;;5.40;99.90;;;;;;4976800;28;20201;-63
2021/12/03 09:02:38;;;;;;;6.43;3.63;;;5.30;99.90;;;;;;4976275;28;20291;-63
2021/12/03 09:05:05;;;;;;;5.00;3.23;;;5.10;99.90;;;;;;4976490;28;20512;-61
2021/12/03 09:07:32;;;;;;;6.97;4.10;;;5.30;99.90;;;;;;4975936;28;20225;-61
2021/12/03 09:09:59;;;;;;;5.60;3.27;;;5.30;99.90;;;;;;4976442;28;20219;-60
2021/12/03 09:12:27;;;;;;;4.90;3.80;;;5.40;99.90;;;;;;4976589;28;20208;-61
2021/12/03 09:14:56;;;;;;;8.23;4.17;;;5.50;99.90;;;;;;4976206;28;20303;-60
2021/12/03 09:17:33;;;;;;;5.73;3.83;;;5.60;99.90;;;;;;4975605;28;20271;-60
2021/12/03 09:20:06;;;;;;;7.57;3.70;;;5.40;99.90;;;;;;4976130;28;20219;-60
2021/12/03 09:22:40;;;;;;;4.30;3.33;;;5.60;99.90;;;;;;4976182;28;20208;-66
2021/12/03 09:25:10;;;;;;;7.67;4.13;;;5.60;99.90;;;;;;4975982;28;20207;-59
2021/12/03 09:27:39;;;;;;;6.53;3.67;;;5.60;99.90;;;;;;4975585;28;21682;-59
2021/12/03 09:30:08;;;;;;;8.47;3.73;;;5.50;99.90;;;;;;4976077;28;20204;-59
2021/12/03 09:32:35;;;;;;;6.17;3.80;;;5.40;99.90;;;;;;4976041;28;20212;-59
2021/12/03 09:35:04;;;;;;;7.70;4.40;;;5.50;99.90;;;;;;4976151;28;20212;-59
2021/12/03 09:37:31;;;;;;;6.87;4.07;;;5.50;99.90;;;;;;4975631;28;20225;-59
2021/12/03 09:40:04;;;;;;;4.57;3.40;;;5.60;99.90;;;;;;4976338;28;20212;-59
2021/12/03 09:42:34;;;;;;;9.70;3.50;;;5.80;99.90;;;;;;4976220;28;20215;-59
2021/12/03 09:45:03;;;;;;;5.63;3.03;;;6.00;99.90;;;;;;4976545;28;20204;-63
2021/12/03 09:47:29;;;;;;;5.23;2.87;;;6.40;99.90;;;;;;4976115;28;20228;-59
2021/12/03 09:49:57;;;;;;;12.93;4.03;;;6.60;99.90;;;;;;4976396;28;20219;-59
2021/12/03 09:52:29;;;;;;;4.10;3.30;;;6.70;99.90;;;;;;4976163;28;20259;-59
2021/12/03 09:54:59;;;;;;;5.60;3.17;;;6.70;99.90;;;;;;4975846;28;20668;-59
2021/12/03 09:57:33;;;;;;;4.47;2.97;;;6.70;99.90;;;;;;4975415;28;20720;-59
2021/12/03 10:03:03;;;;;;;6.67;3.47;;;6.30;99.90;;;;;;4955114;28;20215;-59
2021/12/03 10:13:45;;;;;;;3.10;2.80;;;6.50;99.90;;;;;;4975443;28;20219;-59
2021/12/03 10:19:20;;;;;;;6.23;2.80;;;6.90;99.90;;;;;;4928952;28;20211;-59
2021/12/03 10:22:12;;;;;;;6.13;2.93;;;7.10;99.90;;;;;;4975097;28;20189;-59
2021/12/03 10:27:51;;;;;;;4.57;2.40;;;7.20;99.90;;;;;;4974446;28;20615;-59
2021/12/03 10:30:42;;;;;;;5.60;2.00;;;7.10;99.90;;;;;;4974958;28;20266;-59
2021/12/03 10:33:36;;;;;;;3.60;1.90;;;7.10;99.90;;;;;;4974758;28;20683;-59
2021/12/03 10:39:07;;;;;;;4.70;2.00;;;7.00;99.90;;;;;;4974709;28;20199;-59
2021/12/03 10:41:42;;;;;;;4.23;2.00;;;7.00;99.90;;;;;;4974703;28;20693;-60
2021/12/03 10:44:24;;;;;;;3.73;2.20;;;7.20;99.90;;;;;;4974590;28;20216;-61
2021/12/03 10:47:03;;;;;;;3.50;2.47;;;7.40;99.90;;;;;;4973957;28;20260;-59
2021/12/03 10:49:42;;;;;;;4.70;2.67;;;7.80;99.90;;;;;;4974413;28;20664;-59
2021/12/03 10:52:21;;;;;;;7.33;3.13;;;8.00;99.90;;;;;;4974285;28;20232;-59
2021/12/03 10:55:21;;;;;;;4.53;3.20;;;8.20;99.90;;;;;;4974282;28;20266;-59
2021/12/03 11:06:38;;;;;;;3.97;2.30;;;8.50;99.90;;;;;;4973930;28;20211;-60
2021/12/03 11:15:17;;;;;;;4.20;2.40;;;8.90;99.90;;;;;;4974090;28;20267;-59
2021/12/03 11:33:35;;;;;;;2.97;2.00;;;8.80;99.90;;;;;;4973670;28;20227;-64
2021/12/03 11:35:06;;;;;;;6.00;2.40;;;8.80;99.90;;;;;;4973253;28;20212;-63
2021/12/03 11:38:09;;;;;;;2.60;1.90;;;8.70;99.90;;;;;;4973312;28;20224;-63
2021/12/03 11:41:16;;;;;;;4.03;2.37;;;8.80;99.90;;;;;;4973560;28;20208;-69
2021/12/03 13:11:27;;;;;;;3.50;2.00;;;7.60;99.90;;;;;;5048335;28;20255;-68
2021/12/03 14:02:56;;;;;;;6.80;2.90;;;5.60;99.90;;;;;;5054139;28;20213;-62
2021/12/03 14:41:40;;;;;;;4.00;2.10;;;5.60;99.90;;;;;;5051871;28;20235;-61
2021/12/03 14:44:18;;;;;;;5.53;2.27;;;5.50;99.90;;;;;;5053717;28;20217;-62
2021/12/03 14:47:12;;;;;;;3.57;2.30;;;5.50;99.90;;;;;;5053398;28;20229;-61
2021/12/03 14:53:10;;;;;;;6.13;2.43;;;5.50;99.90;;;;;;5011803;28;20314;-61
2021/12/03 14:55:38;;;;;;;5.70;2.80;;;5.40;99.90;;;;;;5049950;28;20252;-60
2021/12/03 14:58:09;;;;;;;6.07;2.53;;;5.50;99.90;;;;;;5052904;28;20256;-62
2021/12/03 15:00:47;;;;;;;4.63;2.63;;;5.40;99.90;;;;;;5053256;28;20738;-61
2021/12/03 15:03:41;;;;;;;4.27;2.43;;;5.40;99.90;;;;;;5053360;28;20205;-61
2021/12/03 15:06:12;;;;;;;6.43;2.43;;;5.40;99.90;;;;;;5052988;28;20229;-61
2021/12/03 15:08:47;;;;;;;5.13;2.20;;;5.30;99.90;;;;;;5053183;28;20213;-62
2021/12/03 15:25:14;;;;;;;2.77;2.10;;;5.10;99.90;;;;;;5052787;28;20204;-62
2021/12/03 15:27:58;;;;;;;10.00;4.97;;;4.90;99.90;;;;;;5052971;28;20261;-64
2021/12/03 15:30:33;;;;;;;5.90;2.70;;;4.80;99.90;;;;;;5054131;28;20213;-67
2021/12/03 15:33:06;;;;;;;4.07;3.07;;;4.80;99.90;;;;;;5053499;28;20209;-63
2021/12/03 15:35:41;;;;;;;3.60;2.30;;;4.70;99.90;;;;;;5052810;28;20212;-71
2021/12/03 15:38:20;;;;;;;4.63;2.87;;;4.70;99.90;;;;;;5052048;28;20738;-63
2021/12/03 15:41:23;;;;;;;3.83;2.60;;;4.70;99.90;;;;;;5052819;28;20292;-61
2021/12/03 15:57:37;;;;;;;4.37;2.13;;;4.60;99.90;;;;;;5053012;28;20248;-65
2021/12/03 16:08:17;;;;;;;4.63;3.10;;;4.70;99.90;;;;;;5053636;28;20472;-63
2021/12/03 16:10:52;;;;;;;2.83;2.20;;;4.70;99.90;;;;;;5053832;28;20209;-60
2021/12/03 16:13:28;;;;;;;6.87;3.37;;;4.60;99.90;;;;;;5056232;28;20217;-61
2021/12/03 16:18:59;;;;;;;5.80;2.70;;;4.40;99.90;;;;;;5070521;28;20214;-60
2021/12/03 16:27:24;;;;;;;5.77;3.30;;;4.10;99.90;;;;;;5063659;28;20473;-63
2021/12/03 16:46:52;;;;;;;8.20;3.77;;;3.60;99.90;;;;;;5052353;28;20229;-65
2021/12/03 16:52:07;;;;;;;4.90;2.63;;;3.50;99.90;;;;;;5054200;28;20204;-65
2021/12/03 16:54:40;;;;;;;7.47;2.90;;;3.50;99.90;;;;;;5053364;28;20210;-63
2021/12/03 16:57:08;;;;;;;6.03;3.07;;;3.50;99.90;;;;;;5052649;28;20713;-65
2021/12/03 16:59:35;;;;;;;4.57;2.70;;;3.50;99.90;;;;;;5052469;28;20206;-63
2021/12/03 17:02:04;;;;;;;4.97;2.80;;;3.40;99.90;;;;;;5052951;28;20206;-63
2021/12/03 17:04:47;;;;;;;4.63;2.50;;;3.40;99.90;;;;;;5053017;28;20212;-62
2021/12/03 17:13:31;;;;;;;6.10;2.83;;;3.60;99.90;;;;;;5012724;28;20382;-67
2021/12/03 17:30:24;;;;;;;5.20;3.40;;;4.30;99.90;;;;;;5056170;28;20224;-62
2021/12/03 17:49:32;;;;;;;3.43;2.40;;;4.70;99.90;;;;;;5055060;28;20685;-63
2021/12/03 17:52:12;;;;;;;6.10;4.10;;;4.70;99.90;;;;;;5055452;28;20642;-60
2021/12/03 17:54:47;;;;;;;6.17;3.63;;;4.70;99.90;;;;;;5055974;28;20201;-60
2021/12/03 17:57:23;;;;;;;3.80;2.50;;;4.70;99.90;;;;;;5054697;28;20221;-60
2021/12/03 17:59:52;;;;;;;7.93;3.20;;;4.90;99.90;;;;;;5055167;28;20584;-61
2021/12/03 18:02:28;;;;;;;12.03;8.37;;;4.90;99.90;;;;;;5055073;28;20300;-61
2021/12/03 18:05:17;;;;;;;5.30;2.23;;;5.00;99.90;;;;;;5055549;28;20673;-60
2021/12/03 18:07:56;;;;;;;4.87;2.70;;;5.00;99.90;;;;;;5054820;28;20236;-61
2021/12/03 18:10:41;;;;;;;5.93;2.50;;;5.00;99.90;;;;;;5054955;28;20300;-60
2021/12/03 18:13:31;;;;;;;5.47;2.70;;;5.00;99.90;;;;;;5054776;28;20666;-60
2021/12/03 18:43:54;;;;;;;3.53;2.63;;;5.20;99.90;;;;;;5071002;28;20699;-56
2021/12/03 18:49:25;;;;;;;5.40;2.90;;;5.40;99.90;;;;;;5073350;28;20277;-56
2021/12/03 18:52:05;;;;;;;4.80;2.60;;;5.50;99.90;;;;;;5053548;28;20221;-55
2021/12/03 18:54:38;;;;;;;6.90;2.40;;;5.50;99.90;;;;;;5053950;28;20209;-55
2021/12/03 18:57:10;;;;;;;3.53;2.50;;;5.50;99.90;;;;;;5053049;28;20625;-56
2021/12/03 18:59:40;;;;;;;2.93;2.13;;;5.60;99.90;;;;;;5053188;28;20351;-55
2021/12/03 19:02:09;;;;;;;4.63;2.93;;;5.60;99.90;;;;;;5053615;28;20209;-58
2021/12/03 19:04:48;;;;;;;4.13;2.70;;;5.60;99.90;;;;;;5053264;28;20210;-59
2021/12/03 19:07:18;;;;;;;3.90;2.10;;;5.60;99.90;;;;;;5053163;28;20324;-58